Time;durP1;ratioP1;P1;durP2;ratioP2;P2;SDS_P1;SDS_P2;PMS_P1;PMS_P2;Temp;Humidity;BMP_temperature;BMP_pressure;BME280_temperature;BME280_humidity;BME280_pressure;Samples;Min_cycle;Max_cycle;Signal;HPM_P1;HPM_P2
2021/08/17 00:00:52;;;;;;;32.50;29.50;;;;;;;17.86;100.00;98392.91;2096092;28;20316;-74
2021/08/17 00:01:54;;;;;;;32.30;28.87;;;;;;;17.82;100.00;98386.69;2096434;28;20445;-75
2021/08/17 00:02:54;;;;;;;34.10;30.87;;;;;;;17.79;100.00;98388.16;2097309;28;20225;-75
2021/08/17 00:03:56;;;;;;;30.67;27.37;;;;;;;17.79;100.00;98388.16;2097292;28;20449;-75
2021/08/17 00:04:56;;;;;;;33.93;30.37;;;;;;;17.75;100.00;98381.94;2097200;28;20225;-75
2021/08/17 00:06:01;;;;;;;35.87;32.57;;;;;;;17.74;100.00;98390.41;2096389;28;20479;-75
2021/08/17 00:07:02;;;;;;;31.27;28.00;;;;;;;17.77;100.00;98392.38;2096450;28;20257;-75
2021/08/17 00:08:04;;;;;;;32.43;29.03;;;;;;;17.70;100.00;98376.06;2097312;28;20449;-75
2021/08/17 00:09:05;;;;;;;28.70;26.00;;;;;;;17.66;100.00;98364.41;2087884;28;20302;-75
2021/08/17 00:10:08;;;;;;;30.27;26.87;;;;;;;17.64;100.00;98364.78;2088319;28;20488;-75
2021/08/17 00:11:10;;;;;;;30.40;27.30;;;;;;;17.61;100.00;98359.31;2096078;28;20255;-75
2021/08/17 00:12:10;;;;;;;30.33;27.23;;;;;;;17.60;100.00;98344.25;2096565;28;20468;-75
2021/08/17 00:13:12;;;;;;;29.33;26.43;;;;;;;17.59;100.00;98343.47;2097253;28;20431;-75
2021/08/17 00:14:13;;;;;;;29.50;26.73;;;;;;;17.57;100.00;98342.28;2097173;28;20668;-75
2021/08/17 00:15:15;;;;;;;30.17;27.53;;;;;;;17.55;100.00;98333.75;2097348;28;20799;-75
2021/08/17 00:16:16;;;;;;;31.67;28.37;;;;;;;17.58;100.00;98322.25;2097171;28;20218;-76
2021/08/17 00:17:18;;;;;;;31.00;28.10;;;;;;;17.56;100.00;98317.25;2097152;28;20462;-75
2021/08/17 00:18:19;;;;;;;32.70;29.20;;;;;;;17.49;100.00;98325.97;2096429;28;20351;-75
2021/08/17 00:19:20;;;;;;;30.67;27.87;;;;;;;17.47;100.00;98316.69;2096419;28;20457;-76
2021/08/17 00:20:21;;;;;;;31.07;27.70;;;;;;;17.42;100.00;98303.50;2097208;28;20221;-75
2021/08/17 00:21:24;;;;;;;29.90;27.10;;;;;;;17.44;100.00;98301.22;2095990;28;20506;-75
2021/08/17 00:22:25;;;;;;;31.87;28.80;;;;;;;17.44;100.00;98296.59;2088189;28;20473;-76
2021/08/17 00:23:27;;;;;;;29.97;27.13;;;;;;;17.45;100.00;98294.69;2096441;28;20452;-75
2021/08/17 00:24:27;;;;;;;29.67;26.97;;;;;;;17.47;100.00;98285.09;2097175;28;20707;-76
2021/08/17 00:25:29;;;;;;;28.23;25.40;;;;;;;17.43;100.00;98278.09;2097165;28;20790;-75
2021/08/17 00:26:29;;;;;;;28.57;25.93;;;;;;;17.42;100.00;98274.63;2097164;28;20245;-76
2021/08/17 00:27:31;;;;;;;28.20;25.43;;;;;;;17.40;100.00;98274.19;2097119;28;20452;-75
2021/08/17 00:28:32;;;;;;;28.07;25.27;;;;;;;17.41;100.00;98275.75;2097153;28;20221;-75
2021/08/17 00:29:33;;;;;;;26.77;24.33;;;;;;;17.39;100.00;98288.81;2097256;28;20926;-75
2021/08/17 00:30:35;;;;;;;28.27;25.83;;;;;;;17.39;100.00;98293.44;2097201;28;20684;-75
2021/08/17 00:31:36;;;;;;;29.47;26.70;;;;;;;17.35;100.00;98312.25;2096525;28;20531;-75
2021/08/17 00:32:37;;;;;;;29.40;26.50;;;;;;;17.32;100.00;98310.28;2096361;28;20461;-76
2021/08/17 00:33:38;;;;;;;30.63;27.57;;;;;;;17.29;100.00;98307.50;2096726;28;20312;-75
2021/08/17 00:34:40;;;;;;;28.43;25.97;;;;;;;17.29;100.00;98299.41;2097055;28;20531;-75
2021/08/17 00:35:40;;;;;;;30.75;28.10;;;;;;;17.26;100.00;98300.91;2097051;28;20221;-75
2021/08/17 00:36:43;;;;;;;27.53;24.93;;;;;;;17.22;100.00;98311.63;2096250;28;20226;-75
2021/08/17 00:37:44;;;;;;;28.13;25.13;;;;;;;17.24;100.00;98313.97;2096355;28;20300;-75
2021/08/17 00:38:45;;;;;;;27.77;23.67;;;;;;;17.25;100.00;98323.63;2097080;28;20441;-75
2021/08/17 00:39:46;;;;;;;26.40;23.87;;;;;;;17.17;100.00;98332.72;2096365;28;20317;-75
2021/08/17 00:40:48;;;;;;;25.93;23.60;;;;;;;17.16;100.00;98331.94;2096409;28;20931;-75
2021/08/17 00:41:49;;;;;;;25.87;23.53;;;;;;;17.14;100.00;98336.91;2096531;28;20307;-74
2021/08/17 00:42:50;;;;;;;25.93;23.33;;;;;;;17.15;100.00;98359.25;2096404;28;20587;-75
2021/08/17 00:43:51;;;;;;;25.93;23.27;;;;;;;17.09;100.00;98371.44;2097157;28;20261;-75
2021/08/17 00:44:53;;;;;;;27.20;24.60;;;;;;;17.01;100.00;98375.91;2096739;28;20957;-75
2021/08/17 00:45:53;;;;;;;26.60;23.67;;;;;;;16.99;100.00;98380.09;2096161;28;20295;-75
2021/08/17 00:46:56;;;;;;;25.83;23.13;;;;;;;16.92;100.00;98388.81;2088198;28;20457;-76
2021/08/17 00:47:57;;;;;;;24.65;22.08;;;;;;;16.80;100.00;98397.81;2087914;28;20317;-75
2021/08/17 00:48:59;;;;;;;24.37;21.97;;;;;;;16.69;100.00;98390.66;2096307;28;20750;-75
2021/08/17 00:49:59;;;;;;;23.63;21.27;;;;;;;16.61;100.00;98401.25;2096968;28;20274;-75
2021/08/17 00:51:01;;;;;;;23.73;21.63;;;;;;;16.50;100.00;98399.44;2097161;28;20230;-75
2021/08/17 00:52:04;;;;;;;26.02;23.08;;;;;;;16.45;100.00;98400.50;2096808;28;20233;-75
2021/08/17 00:53:06;;;;;;;25.98;23.48;;;;;;;16.39;100.00;98389.22;2096577;28;20232;-75
2021/08/17 00:54:07;;;;;;;29.30;23.40;;;;;;;16.30;100.00;98383.22;2094063;28;20308;-75
2021/08/17 00:55:11;;;;;;;25.88;23.58;;;;;;;16.26;100.00;98384.31;2096216;28;20226;-75
2021/08/17 00:56:14;;;;;;;26.85;24.23;;;;;;;16.22;100.00;98384.19;2095838;28;20279;-75
2021/08/17 00:57:15;;;;;;;27.77;25.40;;;;;;;16.20;100.00;98381.09;2096189;28;20303;-76
2021/08/17 00:58:17;;;;;;;26.42;24.23;;;;;;;16.16;100.00;98388.31;2096877;28;20214;-75
2021/08/17 00:59:19;;;;;;;27.23;24.88;;;;;;;16.12;100.00;98387.44;2095851;28;20217;-75
2021/08/17 01:00:20;;;;;;;28.65;26.35;;;;;;;16.09;100.00;98396.22;2096219;28;20242;-75
2021/08/17 01:01:22;;;;;;;26.90;24.60;;;;;;;16.05;100.00;98398.03;2096967;28;20233;-75
2021/08/17 01:02:22;;;;;;;27.45;25.23;;;;;;;16.01;100.00;98403.31;2094683;28;20224;-75
2021/08/17 01:03:24;;;;;;;27.87;25.47;;;;;;;15.98;100.00;98412.06;2096946;28;20229;-75
2021/08/17 01:04:25;;;;;;;29.33;26.92;;;;;;;15.99;100.00;98418.25;2097028;28;20218;-75
2021/08/17 01:05:30;;;;;;;28.57;25.90;;;;;;;15.98;100.00;98427.44;2096945;28;20694;-74
2021/08/17 01:06:31;;;;;;;28.23;25.35;;;;;;;15.89;100.00;98435.69;2096992;28;20334;-75
2021/08/17 01:07:35;;;;;;;29.60;27.05;;;;;;;15.90;100.00;98429.19;2096938;28;20722;-75
2021/08/17 01:08:36;;;;;;;30.75;28.00;;;;;;;15.86;100.00;98435.59;2096205;28;20241;-75
2021/08/17 01:09:38;;;;;;;28.93;26.23;;;;;;;15.85;100.00;98450.19;2093717;28;20230;-75
2021/08/17 01:10:40;;;;;;;27.25;24.75;;;;;;;15.82;100.00;98444.38;2096031;28;20264;-75
2021/08/17 01:11:43;;;;;;;26.20;23.90;;;;;;;15.82;100.00;98439.00;2087973;28;20234;-75
2021/08/17 01:12:45;;;;;;;28.63;25.95;;;;;;;15.83;100.00;98437.88;2096209;28;20384;-75
2021/08/17 01:13:48;;;;;;;28.10;25.80;;;;;;;15.76;100.00;98443.06;2096899;28;20367;-75
2021/08/17 01:14:49;;;;;;;28.75;26.08;;;;;;;15.72;100.00;98439.47;2096884;28;20228;-75
2021/08/17 01:15:51;;;;;;;26.23;23.73;;;;;;;15.71;100.00;98440.59;2097050;28;20657;-75
2021/08/17 01:16:53;;;;;;;26.85;24.65;;;;;;;15.71;100.00;98445.22;2096596;28;20238;-74
2021/08/17 01:17:54;;;;;;;25.75;23.50;;;;;;;15.66;100.00;98435.50;2096860;28;20705;-75
2021/08/17 01:18:55;;;;;;;26.27;23.97;;;;;;;15.70;100.00;98443.66;2096064;28;20579;-74
2021/08/17 01:19:57;;;;;;;25.80;23.50;;;;;;;15.68;100.00;98438.63;2096235;28;20232;-75
2021/08/17 01:20:59;;;;;;;27.57;24.90;;;;;;;15.67;100.00;98431.69;2096032;28;20316;-74
2021/08/17 01:22:00;;;;;;;25.95;23.80;;;;;;;15.62;100.00;98426.53;2080937;28;20226;-75
2021/08/17 01:23:03;;;;;;;26.33;23.83;;;;;;;15.65;100.00;98425.09;2095390;28;20221;-75
2021/08/17 01:24:04;;;;;;;25.90;23.40;;;;;;;15.64;100.00;98418.94;2096967;28;20267;-75
2021/08/17 01:25:06;;;;;;;31.45;23.73;;;;;;;15.63;100.00;98433.47;2096815;28;20299;-74
2021/08/17 01:26:09;;;;;;;25.88;23.58;;;;;;;15.62;100.00;98423.84;2095680;28;20242;-74
2021/08/17 01:27:10;;;;;;;25.33;23.33;;;;;;;15.60;100.00;98428.75;2096151;28;20259;-74
2021/08/17 01:28:12;;;;;;;25.53;23.33;;;;;;;15.61;100.00;98427.66;2096950;28;20239;-74
2021/08/17 01:29:15;;;;;;;24.75;22.85;;;;;;;15.59;100.00;98427.22;2096871;28;20309;-75
2021/08/17 01:30:17;;;;;;;25.42;23.15;;;;;;;15.56;100.00;98427.91;2096024;28;20275;-75
2021/08/17 01:31:18;;;;;;;25.75;23.65;;;;;;;15.59;100.00;98419.13;2096310;28;20300;-75
2021/08/17 01:32:19;;;;;;;25.20;23.13;;;;;;;15.56;100.00;98417.16;2096882;28;20218;-75
2021/08/17 01:33:20;;;;;;;27.10;24.90;;;;;;;15.54;100.00;98403.25;2096869;28;20305;-74
2021/08/17 01:34:21;;;;;;;25.53;22.93;;;;;;;15.48;100.00;98404.66;2096080;28;20222;-75
2021/08/17 01:35:22;;;;;;;25.80;23.70;;;;;;;15.46;100.00;98404.19;2095735;28;20233;-74
2021/08/17 01:36:24;;;;;;;26.23;23.63;;;;;;;15.41;100.00;98407.13;2096865;28;20232;-75
2021/08/17 01:37:24;;;;;;;25.15;22.83;;;;;;;15.39;100.00;98404.78;2096334;28;20724;-75
2021/08/17 01:38:26;;;;;;;26.47;24.17;;;;;;;15.40;100.00;98411.72;2096136;28;20602;-75
2021/08/17 01:39:27;;;;;;;28.95;26.40;;;;;;;15.41;100.00;98420.56;2096132;28;20696;-75
2021/08/17 01:40:28;;;;;;;26.90;24.60;;;;;;;15.42;100.00;98422.91;2096158;28;20654;-75
2021/08/17 01:41:30;;;;;;;27.15;24.58;;;;;;;15.40;100.00;98430.56;2095642;28;20256;-75
2021/08/17 01:42:32;;;;;;;28.33;25.90;;;;;;;15.39;100.00;98430.91;2096213;28;20275;-75
2021/08/17 01:43:33;;;;;;;26.42;24.35;;;;;;;15.41;100.00;98432.09;2096057;28;20291;-74
2021/08/17 01:44:35;;;;;;;26.77;24.47;;;;;;;15.42;100.00;98430.97;2096138;28;20226;-75
2021/08/17 01:45:36;;;;;;;26.05;23.63;;;;;;;15.45;100.00;98437.56;2096342;28;20727;-75
2021/08/17 01:46:38;;;;;;;27.50;24.60;;;;;;;15.48;100.00;98439.59;2096183;28;20568;-75
2021/08/17 01:47:39;;;;;;;28.45;25.65;;;;;;;15.51;100.00;98442.38;2095628;28;20318;-74
2021/08/17 01:48:41;;;;;;;27.37;24.40;;;;;;;15.50;100.00;98438.13;2096753;28;20229;-75
2021/08/17 01:49:41;;;;;;;27.17;24.83;;;;;;;15.48;100.00;98443.06;2096880;28;20229;-74
2021/08/17 01:50:43;;;;;;;28.77;25.83;;;;;;;15.48;100.00;98443.06;2096744;28;20229;-75
2021/08/17 01:51:45;;;;;;;28.05;25.33;;;;;;;15.49;100.00;98449.22;2096707;28;20218;-75
2021/08/17 01:52:46;;;;;;;26.83;24.45;;;;;;;15.50;100.00;98458.84;2095978;28;20301;-74
2021/08/17 01:53:47;;;;;;;26.02;23.73;;;;;;;15.46;100.00;98447.19;2080010;28;20250;-75
2021/08/17 01:54:49;;;;;;;26.80;24.40;;;;;;;15.43;100.00;98445.97;2095546;28;20755;-75
2021/08/17 01:55:50;;;;;;;27.33;24.83;;;;;;;15.40;100.00;98451.28;2096674;28;20308;-75
2021/08/17 01:56:53;;;;;;;26.90;24.42;;;;;;;15.40;100.00;98445.91;2093609;28;20265;-75
2021/08/17 01:57:54;;;;;;;26.52;24.13;;;;;;;15.37;100.00;98454.63;2085755;28;20263;-74
2021/08/17 01:58:55;;;;;;;26.90;24.53;;;;;;;15.34;100.00;98449.94;2096103;28;20252;-74
2021/08/17 01:59:56;;;;;;;26.95;24.27;;;;;;;15.32;100.00;98446.81;2096662;28;20226;-75
2021/08/17 02:00:57;;;;;;;26.77;24.03;;;;;;;15.32;100.00;98449.50;2095995;28;20264;-75
2021/08/17 02:01:58;;;;;;;26.77;24.10;;;;;;;15.26;100.00;98447.06;2087570;28;20358;-74
2021/08/17 02:03:00;;;;;;;27.73;24.93;;;;;;;15.26;100.00;98444.38;2095958;28;20687;-74
2021/08/17 02:04:00;;;;;;;27.67;25.17;;;;;;;15.27;100.00;98445.16;2096328;28;20222;-75
2021/08/17 02:05:02;;;;;;;28.37;25.67;;;;;;;15.23;100.00;98442.38;2097547;28;20714;-75
2021/08/17 02:06:03;;;;;;;30.13;25.67;;;;;;;15.21;100.00;98443.84;2097294;28;20222;-74
2021/08/17 02:07:05;;;;;;;26.77;23.92;;;;;;;15.19;100.00;98441.47;2087427;28;20677;-75
2021/08/17 02:08:06;;;;;;;29.00;26.27;;;;;;;15.26;100.00;98440.91;2095327;28;20300;-74
2021/08/17 02:09:08;;;;;;;28.15;25.55;;;;;;;15.22;100.00;98432.75;2097930;28;20676;-74
2021/08/17 02:10:10;;;;;;;29.13;26.50;;;;;;;15.19;100.00;98441.47;2097326;28;20242;-74
2021/08/17 02:11:11;;;;;;;29.23;26.35;;;;;;;15.18;100.00;98431.84;2082736;28;20227;-75
2021/08/17 02:12:13;;;;;;;27.48;24.98;;;;;;;15.18;100.00;98439.91;2096355;28;20233;-74
2021/08/17 02:13:16;;;;;;;27.58;24.75;;;;;;;15.19;100.00;98436.09;2098113;28;20218;-74
2021/08/17 02:14:17;;;;;;;28.13;25.48;;;;;;;15.19;100.00;98430.72;2097659;28;20214;-74
2021/08/17 02:15:19;;;;;;;30.43;27.30;;;;;;;15.23;100.00;98430.84;2097445;28;20218;-74
2021/08/17 02:16:19;;;;;;;31.45;28.60;;;;;;;15.23;100.00;98425.47;2097348;28;20273;-74
2021/08/17 02:17:21;;;;;;;30.43;27.67;;;;;;;15.18;100.00;98426.47;2097502;28;20213;-74
2021/08/17 02:18:22;;;;;;;30.65;27.70;;;;;;;15.16;100.00;98419.88;2097838;28;20636;-74
2021/08/17 02:19:23;;;;;;;28.83;26.13;;;;;;;15.17;100.00;98422.22;2098230;28;20229;-75
2021/08/17 02:20:24;;;;;;;29.52;26.67;;;;;;;15.16;100.00;98430.63;2098146;28;20230;-74
2021/08/17 02:21:26;;;;;;;30.40;27.60;;;;;;;15.14;100.00;98428.31;2098288;28;20225;-74
2021/08/17 02:22:27;;;;;;;31.10;28.38;;;;;;;15.16;100.00;98438.69;2097600;28;20681;-74
2021/08/17 02:23:29;;;;;;;38.17;29.80;;;;;;;15.13;100.00;98442.09;2097354;28;20703;-74
2021/08/17 02:24:30;;;;;;;31.10;28.08;;;;;;;15.09;100.00;98444.66;2097431;28;20233;-74
2021/08/17 02:25:32;;;;;;;32.70;29.60;;;;;;;15.08;100.00;98451.16;2098040;28;20221;-74
2021/08/17 02:26:32;;;;;;;32.22;28.77;;;;;;;15.06;100.00;98455.31;2097330;28;20309;-74
2021/08/17 02:27:36;;;;;;;33.00;29.57;;;;;;;15.06;100.00;98453.41;2097449;28;20230;-75
2021/08/17 02:28:37;;;;;;;33.35;29.92;;;;;;;15.06;100.00;98461.47;2096926;28;20246;-74
2021/08/17 02:29:38;;;;;;;33.30;29.87;;;;;;;15.06;100.00;98458.00;2098010;28;20232;-74
2021/08/17 02:30:39;;;;;;;34.15;30.55;;;;;;;15.05;100.00;98454.53;2098014;28;20308;-74
2021/08/17 02:31:41;;;;;;;32.70;29.50;;;;;;;15.08;100.00;98448.47;2098059;28;20222;-75
2021/08/17 02:32:41;;;;;;;40.80;29.33;;;;;;;15.08;100.00;98453.84;2098044;28;20419;-74
2021/08/17 02:33:43;;;;;;;34.27;29.40;;;;;;;15.08;100.00;98435.03;2098153;28;20226;-74
2021/08/17 02:34:43;;;;;;;33.70;30.25;;;;;;;15.09;100.00;98425.84;2098083;28;20571;-75
2021/08/17 02:35:45;;;;;;;33.97;30.53;;;;;;;15.13;100.00;98417.91;2098093;28;20248;-74
2021/08/17 02:36:46;;;;;;;34.97;31.25;;;;;;;15.11;100.00;98423.59;2098097;28;20210;-75
2021/08/17 02:37:48;;;;;;;33.57;30.27;;;;;;;15.15;100.00;98421.03;2098061;28;20222;-74
2021/08/17 02:38:49;;;;;;;33.30;30.00;;;;;;;15.16;100.00;98414.50;2098020;28;20313;-74
2021/08/17 02:39:50;;;;;;;33.92;30.30;;;;;;;15.17;100.00;98413.38;2097993;28;20229;-75
2021/08/17 02:40:51;;;;;;;40.63;31.60;;;;;;;15.17;100.00;98411.47;2097480;28;20241;-75
2021/08/17 02:41:52;;;;;;;35.05;31.70;;;;;;;15.18;100.00;98414.94;2082126;28;20318;-75
2021/08/17 02:42:55;;;;;;;36.43;32.80;;;;;;;15.17;100.00;98408.00;2095283;28;20747;-75
2021/08/17 02:43:56;;;;;;;36.00;30.70;;;;;;;15.17;100.00;98416.84;2097968;28;20232;-74
2021/08/17 02:44:57;;;;;;;36.43;32.73;;;;;;;15.20;100.00;98426.13;2096843;28;20229;-74
2021/08/17 02:45:58;;;;;;;37.17;33.05;;;;;;;15.18;100.00;98426.47;2097195;28;20598;-74
2021/08/17 02:47:00;;;;;;;35.90;32.17;;;;;;;15.19;100.00;98425.34;2097073;28;20237;-75
2021/08/17 02:48:02;;;;;;;33.72;30.23;;;;;;;15.22;100.00;98432.75;2097246;28;20741;-74
2021/08/17 02:49:05;;;;;;;33.75;30.55;;;;;;;15.25;100.00;98437.44;2097166;28;20229;-75
2021/08/17 02:50:07;;;;;;;35.90;31.75;;;;;;;15.25;100.00;98450.88;2097114;28;20647;-75
2021/08/17 02:51:08;;;;;;;35.78;32.25;;;;;;;15.24;100.00;98459.28;2097543;28;20302;-75
2021/08/17 02:52:09;;;;;;;35.58;31.88;;;;;;;15.28;100.00;98455.56;2097341;28;20266;-75
2021/08/17 02:53:11;;;;;;;34.47;30.80;;;;;;;15.28;100.00;98455.56;2082237;28;20701;-75
2021/08/17 02:54:11;;;;;;;33.55;30.48;;;;;;;15.29;100.00;98456.38;2095660;28;23204;-75
2021/08/17 02:55:13;;;;;;;34.20;30.70;;;;;;;15.31;100.00;98454.09;2097182;28;20253;-74
2021/08/17 02:56:13;;;;;;;37.58;30.45;;;;;;;15.30;100.00;98463.31;2097938;28;20222;-74
2021/08/17 02:57:15;;;;;;;35.87;32.20;;;;;;;15.34;100.00;98458.00;2096920;28;20226;-75
2021/08/17 02:58:18;;;;;;;33.85;30.20;;;;;;;15.33;100.00;98461.81;2088819;28;20243;-75
2021/08/17 02:59:19;;;;;;;34.65;30.45;;;;;;;15.30;100.00;98466.00;2097244;28;20558;-75
2021/08/17 03:00:22;;;;;;;35.07;30.37;;;;;;;15.33;100.00;98467.19;2096921;28;20251;-75
2021/08/17 03:01:22;;;;;;;34.92;31.60;;;;;;;15.30;100.00;98459.84;2088326;28;20230;-75
2021/08/17 03:02:24;;;;;;;34.00;30.40;;;;;;;15.30;100.00;98459.84;2097156;28;20230;-75
2021/08/17 03:03:24;;;;;;;38.53;29.45;;;;;;;15.28;100.00;98468.22;2096638;28;20317;-75
2021/08/17 03:04:26;;;;;;;34.37;30.13;;;;;;;15.28;100.00;98460.16;2097061;28;20230;-75
2021/08/17 03:05:27;;;;;;;34.13;30.38;;;;;;;15.27;100.00;98456.69;2097165;28;20309;-75
2021/08/17 03:06:28;;;;;;;37.23;31.10;;;;;;;15.26;100.00;98463.19;2096973;28;20268;-75
2021/08/17 03:07:29;;;;;;;39.45;32.63;;;;;;;15.25;100.00;98455.47;2097820;28;20669;-75
2021/08/17 03:08:30;;;;;;;34.73;30.97;;;;;;;15.25;100.00;98456.25;2097625;28;20672;-75
2021/08/17 03:09:31;;;;;;;34.50;31.10;;;;;;;15.26;100.00;98463.19;2097827;28;20255;-75
2021/08/17 03:10:34;;;;;;;36.43;32.83;;;;;;;15.25;100.00;98453.56;2097874;28;20754;-75
2021/08/17 03:11:35;;;;;;;37.45;32.63;;;;;;;15.24;100.00;98462.75;2097768;28;20218;-75
2021/08/17 03:12:36;;;;;;;36.90;31.17;;;;;;;15.26;100.00;98465.88;2097658;28;20218;-75
2021/08/17 03:13:38;;;;;;;35.30;32.28;;;;;;;15.26;100.00;98468.56;2097344;28;20238;-75
2021/08/17 03:14:40;;;;;;;35.08;31.75;;;;;;;15.27;100.00;98475.50;2097660;28;20699;-75
2021/08/17 03:15:40;;;;;;;38.38;32.80;;;;;;;15.29;100.00;98477.88;2096052;28;20313;-75
2021/08/17 03:16:42;;;;;;;37.90;34.33;;;;;;;15.27;100.00;98478.19;2096918;28;20240;-75
2021/08/17 03:17:43;;;;;;;38.28;34.17;;;;;;;15.28;100.00;98485.13;2096903;28;20759;-75
2021/08/17 03:18:44;;;;;;;39.90;35.87;;;;;;;15.27;100.00;98488.16;2097651;28;20578;-74
2021/08/17 03:19:45;;;;;;;37.75;34.05;;;;;;;15.26;100.00;98484.69;2096938;28;20217;-75
2021/08/17 03:20:47;;;;;;;40.33;36.40;;;;;;;15.34;100.00;98482.97;2096929;28;20237;-75
2021/08/17 03:21:47;;;;;;;38.10;34.30;;;;;;;15.30;100.00;98486.72;2097640;28;20225;-75
2021/08/17 03:22:49;;;;;;;39.97;35.90;;;;;;;15.28;100.00;98487.03;2096845;28;20217;-75
2021/08/17 03:23:50;;;;;;;36.97;33.53;;;;;;;15.25;100.00;98483.13;2096857;28;20229;-75
2021/08/17 03:24:52;;;;;;;36.60;32.92;;;;;;;15.24;100.00;98478.09;2097639;28;20214;-75
2021/08/17 03:25:54;;;;;;;35.28;31.80;;;;;;;15.24;100.00;98481.56;2097193;28;20275;-75
2021/08/17 03:26:54;;;;;;;35.92;32.22;;;;;;;15.27;100.00;98486.25;2097462;28;20230;-75
2021/08/17 03:27:57;;;;;;;34.67;31.37;;;;;;;15.24;100.00;98486.94;2097470;28;20234;-75
2021/08/17 03:29:00;;;;;;;35.63;32.15;;;;;;;15.24;100.00;98495.00;2096750;28;20220;-75
2021/08/17 03:30:00;;;;;;;35.03;31.75;;;;;;;15.25;100.00;98485.81;2096893;28;20222;-75
2021/08/17 03:31:02;;;;;;;35.07;31.47;;;;;;;15.27;100.00;98491.63;2097656;28;20222;-75
2021/08/17 03:32:03;;;;;;;33.47;30.38;;;;;;;15.27;100.00;98483.56;2097590;28;20305;-74
2021/08/17 03:33:05;;;;;;;34.88;31.40;;;;;;;15.26;100.00;98487.38;2097568;28;20214;-75
2021/08/17 03:34:06;;;;;;;35.50;31.70;;;;;;;15.26;100.00;98482.00;2097613;28;20305;-75
2021/08/17 03:35:08;;;;;;;35.37;32.10;;;;;;;15.26;100.00;98486.59;2097281;28;20688;-75
2021/08/17 03:36:10;;;;;;;35.95;32.22;;;;;;;15.26;100.00;98482.00;2097537;28;20226;-75
2021/08/17 03:37:11;;;;;;;33.60;30.35;;;;;;;15.25;100.00;98482.34;2097539;28;20246;-74
2021/08/17 03:38:12;;;;;;;33.90;30.33;;;;;;;15.24;100.00;98486.94;2096698;28;20230;-75
2021/08/17 03:39:14;;;;;;;34.03;30.25;;;;;;;15.24;100.00;98483.47;2088232;28;20227;-75
2021/08/17 03:40:16;;;;;;;36.05;31.17;;;;;;;15.25;100.00;98488.50;2096840;28;20305;-75
2021/08/17 03:41:18;;;;;;;34.28;31.17;;;;;;;15.24;100.00;98486.94;2097493;28;20305;-75
2021/08/17 03:42:18;;;;;;;33.55;30.35;;;;;;;15.25;100.00;98491.19;2097438;28;20269;-74
2021/08/17 03:43:20;;;;;;;33.57;30.47;;;;;;;15.24;100.00;98486.16;2097589;28;20222;-75
2021/08/17 03:44:22;;;;;;;34.15;30.55;;;;;;;15.23;100.00;98481.91;2097445;28;20692;-75
2021/08/17 03:45:25;;;;;;;32.50;29.52;;;;;;;15.23;100.00;98490.75;2097152;28;20274;-74
2021/08/17 03:46:26;;;;;;;31.50;28.58;;;;;;;15.22;100.00;98494.56;2097485;28;20218;-75
2021/08/17 03:47:28;;;;;;;33.00;29.20;;;;;;;15.26;100.00;98491.97;2096603;28;20324;-75
2021/08/17 03:48:29;;;;;;;32.85;29.75;;;;;;;15.25;100.00;98491.19;2086333;28;20641;-75
2021/08/17 03:49:30;;;;;;;33.37;30.17;;;;;;;15.27;100.00;98494.31;2096718;28;20222;-75
2021/08/17 03:50:32;;;;;;;33.80;30.30;;;;;;;15.24;100.00;98492.31;2096479;28;20297;-75
2021/08/17 03:51:32;;;;;;;32.55;29.55;;;;;;;15.25;100.00;98491.19;2096755;28;20225;-75
2021/08/17 03:52:34;;;;;;;32.57;29.43;;;;;;;15.25;100.00;98499.25;2096635;28;20222;-75
2021/08/17 03:53:36;;;;;;;33.38;30.08;;;;;;;15.27;100.00;98498.91;2096650;28;20308;-75
2021/08/17 03:54:37;;;;;;;31.52;28.52;;;;;;;15.24;100.00;98499.59;2097094;28;20222;-75
2021/08/17 03:55:39;;;;;;;30.77;27.73;;;;;;;15.26;100.00;98500.81;2097358;28;20282;-75
2021/08/17 03:56:40;;;;;;;31.93;28.73;;;;;;;15.26;100.00;98508.88;2097333;28;20234;-75
2021/08/17 03:57:41;;;;;;;30.58;27.50;;;;;;;15.26;100.00;98510.78;2097353;28;20278;-75
2021/08/17 03:58:43;;;;;;;30.43;27.20;;;;;;;15.26;100.00;98508.09;2097346;28;20234;-74
2021/08/17 03:59:45;;;;;;;30.65;27.40;;;;;;;15.25;100.00;98504.63;2096666;28;20495;-74
2021/08/17 04:00:47;;;;;;;29.67;26.42;;;;;;;15.23;100.00;98498.03;2096619;28;20221;-74
2021/08/17 04:01:48;;;;;;;29.83;26.83;;;;;;;15.25;100.00;98496.56;2097153;28;20775;-74
2021/08/17 04:02:49;;;;;;;32.20;26.80;;;;;;;15.26;100.00;98503.50;2097316;28;20620;-75
2021/08/17 04:03:50;;;;;;;29.92;26.73;;;;;;;15.30;100.00;98502.84;2097368;28;20242;-74
2021/08/17 04:04:51;;;;;;;32.63;29.33;;;;;;;15.26;100.00;98498.13;2096556;28;20226;-75
2021/08/17 04:05:52;;;;;;;34.55;31.05;;;;;;;15.26;100.00;98502.72;2096243;28;20310;-74
2021/08/17 04:06:53;;;;;;;34.57;31.33;;;;;;;15.24;100.00;98503.06;2097367;28;20237;-74
2021/08/17 04:07:54;;;;;;;34.63;31.30;;;;;;;15.25;100.00;98503.84;2097192;28;20249;-75
2021/08/17 04:08:56;;;;;;;32.80;29.50;;;;;;;15.24;100.00;98503.06;2097191;28;20587;-74
2021/08/17 04:09:57;;;;;;;39.15;30.42;;;;;;;15.24;100.00;98511.13;2097282;28;20253;-74
2021/08/17 04:10:59;;;;;;;35.92;32.30;;;;;;;15.27;100.00;98506.97;2097313;28;20707;-74
2021/08/17 04:12:00;;;;;;;37.47;31.48;;;;;;;15.24;100.00;98513.03;2096813;28;20323;-74
2021/08/17 04:13:02;;;;;;;34.27;30.40;;;;;;;15.26;100.00;98513.47;2096533;28;20295;-74
2021/08/17 04:14:02;;;;;;;45.65;30.52;;;;;;;15.25;100.00;98512.69;2097250;28;20227;-75
2021/08/17 04:15:07;;;;;;;35.00;30.50;;;;;;;15.26;100.00;98516.16;2096224;28;20220;-74
2021/08/17 04:16:07;;;;;;;35.33;30.38;;;;;;;15.24;100.00;98521.88;2096176;28;20306;-74
2021/08/17 04:17:12;;;;;;;37.57;29.77;;;;;;;15.22;100.00;98518.75;2097249;28;20226;-74
2021/08/17 04:18:14;;;;;;;34.10;30.42;;;;;;;15.23;100.00;98522.22;2097223;28;20309;-74
2021/08/17 04:19:16;;;;;;;33.90;30.60;;;;;;;15.22;100.00;98520.66;2097112;28;20726;-74
2021/08/17 04:20:16;;;;;;;34.40;30.70;;;;;;;15.21;100.00;98519.88;2097188;28;20665;-74
2021/08/17 04:21:18;;;;;;;37.53;31.30;;;;;;;15.22;100.00;98515.28;2096329;28;20222;-74
2021/08/17 04:22:20;;;;;;;39.33;33.22;;;;;;;15.22;100.00;98516.06;2096374;28;20796;-74
2021/08/17 04:23:21;;;;;;;35.80;31.02;;;;;;;15.22;100.00;98516.06;2096309;28;20222;-74
2021/08/17 04:24:22;;;;;;;34.25;30.88;;;;;;;15.21;100.00;98517.19;2096133;28;20225;-74
2021/08/17 04:25:24;;;;;;;33.57;30.27;;;;;;;15.24;100.00;98527.25;2097120;28;20222;-74
2021/08/17 04:26:24;;;;;;;35.75;31.80;;;;;;;15.24;100.00;98539.91;2097155;28;20253;-74
2021/08/17 04:27:26;;;;;;;33.93;30.73;;;;;;;15.23;100.00;98539.13;2097140;28;20218;-74
2021/08/17 04:28:28;;;;;;;34.63;31.42;;;;;;;15.33;100.00;98537.09;2097080;28;20226;-74
2021/08/17 04:29:29;;;;;;;34.50;31.20;;;;;;;15.30;100.00;98537.78;2096553;28;20226;-74
2021/08/17 04:30:32;;;;;;;34.47;30.90;;;;;;;15.25;100.00;98547.63;2096362;28;20279;-74
2021/08/17 04:31:32;;;;;;;34.97;31.27;;;;;;;15.23;100.00;98541.81;2097047;28;20233;-74
2021/08/17 04:32:34;;;;;;;37.43;33.40;;;;;;;15.25;100.00;98544.94;2096252;28;20226;-74
2021/08/17 04:33:35;;;;;;;38.13;33.88;;;;;;;15.23;100.00;98557.94;2096492;28;20218;-74
2021/08/17 04:34:36;;;;;;;37.37;31.40;;;;;;;15.22;100.00;98559.06;2097182;28;20226;-74
2021/08/17 04:35:37;;;;;;;36.97;32.42;;;;;;;15.21;100.00;98557.50;2096649;28;20669;-73
2021/08/17 04:36:38;;;;;;;36.43;32.67;;;;;;;15.17;100.00;98553.91;2097074;28;20575;-74
2021/08/17 04:37:39;;;;;;;34.13;30.92;;;;;;;15.20;100.00;98561.31;2097033;28;20230;-74
2021/08/17 04:38:41;;;;;;;35.33;32.07;;;;;;;15.21;100.00;98557.50;2097171;28;20704;-74
2021/08/17 04:39:41;;;;;;;34.28;30.88;;;;;;;15.21;100.00;98562.88;2096862;28;20783;-74